Archival Weather

Norman Y Mineta San Jose Intl

San Jose, California (KSJC)

Report from: Wednesday, February 21, 2024 11:53 PM PST
Current time: Monday, June 17, 2024 12:11 AM PDT

Current weather – Weather history – Daily summaries
Weather forecast

Temperature10.6°C (51.1°F)
Dew point6.7°C (44.1°F)
Winds 4 kts (2.1 m/s, 4.6 mph) West-Northwest (290°)
Visibility10 mi. (16.1 km)
Clouds Few clouds 3,500 ft. (1,067 m)
Altimeter30.25 in.Hg (1024 mB)
Relative humidity77 %
Density altitude-757 ft. (-231 m)
Sea-level pressure102.4 kPa (1024 mB, 30.25 in.Hg)
Max temp last 24 hours18.9°C (66.0°F)
Min temp last 24 hours6.7°C (44.1°F)
Remarks Automated weather observing station with precipitation discriminator
Flight conditions Visual Meteorological Conditions
Raw dataKSJC 220753Z 29004KT 10SM FEW035 11/07 A3025 RMK AO2 SLP243 T01060067 401890067
An error has occurred. This application may no longer respond until reloaded. Reload 🗙